Time;durP1;ratioP1;P1;durP2;ratioP2;P2;SDS_P1;SDS_P2;PMS_P1;PMS_P2;Temp;Humidity;BMP_temperature;BMP_pressure;BME280_temperature;BME280_humidity;BME280_pressure;Samples;Min_cycle;Max_cycle;Signal;HPM_P1;HPM_P2
2020/12/22 00:08:43;;;;;;;23.07;13.27;;;6.80;99.90;;;;;;20827627;28;20030;-76
2020/12/22 00:18:44;;;;;;;20.47;13.07;;;6.80;99.90;;;;;;20825010;28;20036;-75
2020/12/22 00:28:45;;;;;;;21.50;13.17;;;6.80;99.90;;;;;;20825992;28;20116;-76
2020/12/22 00:38:46;;;;;;;24.03;13.37;;;6.80;99.90;;;;;;20825301;28;20053;-76
2020/12/22 00:48:47;;;;;;;26.20;13.20;;;6.80;99.90;;;;;;20825015;28;20216;-76
2020/12/22 00:58:48;;;;;;;37.72;16.45;;;6.90;99.90;;;;;;20823357;28;20026;-76
2020/12/22 01:08:49;;;;;;;34.80;15.50;;;6.90;99.90;;;;;;20824353;28;20113;-76
2020/12/22 01:18:50;;;;;;;30.27;13.97;;;6.90;99.90;;;;;;20823810;28;20033;-76
2020/12/22 01:28:54;;;;;;;104.97;16.60;;;6.90;99.90;;;;;;20830774;28;20105;-75
2020/12/22 01:38:55;;;;;;;35.13;14.65;;;7.00;99.90;;;;;;20838954;28;20030;-75
2020/12/22 01:48:58;;;;;;;26.63;12.50;;;7.00;99.90;;;;;;20838433;28;20460;-76
2020/12/22 01:58:58;;;;;;;33.85;14.90;;;7.10;99.90;;;;;;20836123;28;20124;-76
2020/12/22 02:09:00;;;;;;;39.60;14.37;;;7.20;99.90;;;;;;20836924;28;20056;-76
2020/12/22 02:19:02;;;;;;;31.08;13.18;;;7.20;99.90;;;;;;20836144;28;20050;-76
2020/12/22 02:29:02;;;;;;;29.50;13.17;;;7.50;99.90;;;;;;20835166;28;20040;-76
2020/12/22 02:39:04;;;;;;;36.80;17.33;;;7.60;99.90;;;;;;20833668;28;20037;-76
2020/12/22 02:49:05;;;;;;;32.38;15.82;;;7.70;99.90;;;;;;20833458;28;20025;-76
2020/12/22 02:59:06;;;;;;;29.70;13.40;;;7.40;99.90;;;;;;20832699;28;20116;-76
2020/12/22 03:09:07;;;;;;;29.10;13.20;;;7.80;99.90;;;;;;20831175;28;20029;-76
2020/12/22 03:19:08;;;;;;;26.50;12.45;;;7.80;99.90;;;;;;20831219;28;20045;-76
2020/12/22 03:29:09;;;;;;;19.77;10.13;;;8.00;99.90;;;;;;20848675;22;20052;-78
2020/12/22 03:39:10;;;;;;;25.27;12.13;;;8.00;99.90;;;;;;20859270;28;20055;-78
2020/12/22 03:49:10;;;;;;;13.67;7.10;;;8.00;99.90;;;;;;20947857;28;20031;-77
2020/12/22 03:59:11;;;;;;;9.60;5.50;;;8.30;99.90;;;;;;20928244;28;20059;-78
2020/12/22 04:09:13;;;;;;;9.60;5.50;;;8.50;99.90;;;;;;20918820;28;20091;-78
2020/12/22 04:19:14;;;;;;;10.23;6.10;;;8.80;99.90;;;;;;20939159;28;20049;-77
2020/12/22 04:29:15;;;;;;;8.82;5.28;;;8.80;99.90;;;;;;20920630;28;20175;-78
2020/12/22 04:39:16;;;;;;;4.57;3.17;;;9.00;99.90;;;;;;20913011;28;20033;-78
2020/12/22 04:49:21;;;;;;;4.13;2.17;;;9.40;99.90;;;;;;20929111;28;20026;-78
2020/12/22 04:59:22;;;;;;;2.40;1.52;;;9.30;99.90;;;;;;20900970;28;20044;-77
2020/12/22 05:09:22;;;;;;;1.80;1.37;;;9.40;99.90;;;;;;20904543;28;20085;-77
2020/12/22 05:19:24;;;;;;;2.20;1.30;;;9.60;99.90;;;;;;20920416;28;20040;-79
2020/12/22 05:29:25;;;;;;;2.40;1.50;;;9.60;99.90;;;;;;20922887;28;20036;-77
2020/12/22 05:39:26;;;;;;;2.63;1.60;;;9.50;99.90;;;;;;20922061;28;20125;-77
2020/12/22 05:49:27;;;;;;;4.43;1.30;;;9.70;99.90;;;;;;20921824;28;20037;-77
2020/12/22 05:59:28;;;;;;;3.33;1.20;;;9.70;99.90;;;;;;20920726;28;20075;-77
2020/12/22 06:09:29;;;;;;;1.70;1.23;;;9.70;99.90;;;;;;20920385;28;20021;-77
2020/12/22 06:19:34;;;;;;;2.00;1.13;;;9.80;99.90;;;;;;20909711;28;20063;-77
2020/12/22 06:29:39;;;;;;;1.85;1.58;;;9.90;99.90;;;;;;20904047;28;20119;-77
2020/12/22 06:39:42;;;;;;;2.17;1.30;;;10.00;99.90;;;;;;20906862;28;20067;-75
2020/12/22 06:49:47;;;;;;;1.10;0.65;;;10.50;99.90;;;;;;20897526;28;20033;-75
2020/12/22 06:59:48;;;;;;;1.00;0.63;;;10.90;99.90;;;;;;20951659;28;20094;-79
2020/12/22 07:10:00;;;;;;;1.33;0.63;;;10.50;99.90;;;;;;20921155;28;20075;-78
2020/12/22 07:20:03;;;;;;;1.38;0.95;;;10.30;99.90;;;;;;20901776;28;20033;-77
2020/12/22 07:30:04;;;;;;;11.38;1.52;;;10.40;99.90;;;;;;20932990;28;20487;-82
2020/12/22 07:40:12;;;;;;;1.30;1.20;;;10.60;99.90;;;;;;20868033;28;20139;-79
2020/12/22 07:50:16;;;;;;;3.90;0.85;;;10.60;99.90;;;;;;20896920;28;20082;-82
2020/12/22 08:00:16;;;;;;;1.58;0.93;;;10.70;99.90;;;;;;20869324;28;20029;-79
2020/12/22 08:10:18;;;;;;;1.33;0.90;;;10.70;99.90;;;;;;20917049;28;20087;-81
2020/12/22 08:20:19;;;;;;;2.83;0.80;;;10.90;99.90;;;;;;20913108;28;20029;-80
2020/12/22 08:30:21;;;;;;;2.07;1.10;;;11.00;99.90;;;;;;20912544;28;20086;-81
2020/12/22 08:40:29;;;;;;;;;;;11.10;99.90;;;;;;20900781;28;20033;-81
2020/12/22 08:50:44;;;;;;;1.70;0.80;;;11.20;99.90;;;;;;20913968;28;19968;-80
2020/12/22 09:00:45;;;;;;;0.50;0.40;;;11.30;99.90;;;;;;20923619;28;20450;-80
2020/12/22 09:10:47;;;;;;;1.13;0.88;;;11.60;99.90;;;;;;20905941;28;20021;-80
2020/12/22 09:21:04;;;;;;;0.75;0.52;;;11.60;99.90;;;;;;20914389;28;20021;-80
2020/12/22 09:31:05;;;;;;;1.13;0.60;;;11.60;99.90;;;;;;20910193;28;20060;-76
2020/12/22 09:41:06;;;;;;;11.02;4.32;;;11.60;99.90;;;;;;20920768;28;20472;-77
2020/12/22 09:51:14;;;;;;;5.13;2.20;;;11.70;99.90;;;;;;20925891;28;20021;-78
2020/12/22 10:01:21;;;;;;;7.22;3.10;;;11.60;99.90;;;;;;20935175;28;20487;-77
2020/12/22 10:11:23;;;;;;;3.08;1.40;;;11.80;99.90;;;;;;20899954;28;20029;-77
2020/12/22 10:21:24;;;;;;;3.17;0.90;;;12.00;99.90;;;;;;20933476;28;20036;-77
2020/12/22 10:31:27;;;;;;;4.68;2.25;;;12.30;99.90;;;;;;20941874;28;20097;-77
2020/12/22 10:41:28;;;;;;;3.00;0.80;;;12.40;99.90;;;;;;20909458;28;20032;-77
2020/12/22 10:51:31;;;;;;;1.10;0.70;;;12.70;99.90;;;;;;20921812;28;20021;-77
2020/12/22 11:01:32;;;;;;;0.50;0.40;;;13.00;99.90;;;;;;20922807;28;20116;-77
2020/12/22 11:11:33;;;;;;;0.20;0.20;;;13.20;99.90;;;;;;20894053;28;20049;-76
2020/12/22 11:21:33;;;;;;;0.80;0.50;;;13.40;99.90;;;;;;20920380;28;20032;-78
2020/12/22 11:31:34;;;;;;;6.22;1.73;;;13.50;99.90;;;;;;20928300;28;20045;-78
2020/12/22 11:41:35;;;;;;;2.08;0.82;;;13.40;99.90;;;;;;20891751;28;20543;-79
2020/12/22 11:51:36;;;;;;;1.15;0.47;;;13.30;99.90;;;;;;20905175;28;20491;-77
2020/12/22 12:03:06;;;;;;;0.68;0.40;;;13.30;99.90;;;;;;21255080;27;20374;-77
2020/12/22 12:13:06;;;;;;;2.78;0.57;;;13.10;99.90;;;;;;21184119;28;20024;-78
2020/12/22 12:23:07;;;;;;;2.63;0.65;;;12.80;99.90;;;;;;21166354;28;20024;-79
2020/12/22 12:33:08;;;;;;;3.90;0.50;;;12.50;99.90;;;;;;21159965;28;20016;-78
2020/12/22 12:43:09;;;;;;;1.02;0.68;;;12.60;99.90;;;;;;21162499;28;20020;-78
2020/12/22 12:53:10;;;;;;;0.73;0.52;;;12.70;99.90;;;;;;21157582;28;20024;-78
2020/12/22 13:03:11;;;;;;;2.58;1.40;;;12.70;99.90;;;;;;21148486;28;20032;-78
2020/12/22 13:13:11;;;;;;;0.60;0.50;;;12.80;99.90;;;;;;21101799;28;20067;-78
2020/12/22 13:23:12;;;;;;;1.17;0.57;;;12.80;99.90;;;;;;21094375;28;20032;-77
2020/12/22 13:33:13;;;;;;;0.75;0.65;;;12.50;99.90;;;;;;21093497;28;20036;-77
2020/12/22 13:43:14;;;;;;;0.73;0.57;;;12.40;99.90;;;;;;21093841;28;20398;-78
2020/12/22 13:53:15;;;;;;;1.23;1.10;;;12.30;99.90;;;;;;21067187;28;20040;-78
2020/12/22 14:03:16;;;;;;;0.80;0.60;;;12.30;99.90;;;;;;21069072;28;20024;-78
2020/12/22 14:13:17;;;;;;;1.37;0.73;;;12.00;99.90;;;;;;21052837;28;20466;-76
2020/12/22 14:23:18;;;;;;;0.50;0.47;;;12.50;99.90;;;;;;21032098;28;20098;-78
2020/12/22 14:33:19;;;;;;;4.73;3.50;;;12.60;99.90;;;;;;21046543;28;20051;-77
2020/12/22 14:43:20;;;;;;;18.30;8.63;;;12.50;99.90;;;;;;21066189;28;20032;-78
2020/12/22 14:53:21;;;;;;;8.85;4.22;;;12.40;99.90;;;;;;21050460;28;20028;-75
2020/12/22 15:03:21;;;;;;;2.03;1.20;;;12.50;99.90;;;;;;21064776;28;20077;-74
2020/12/22 15:13:22;;;;;;;1.50;0.70;;;12.80;99.90;;;;;;21073045;28;20027;-78
2020/12/22 15:23:24;;;;;;;1.15;0.77;;;12.60;99.90;;;;;;21071918;28;20471;-78
2020/12/22 15:33:24;;;;;;;7.13;2.20;;;12.40;99.90;;;;;;21055805;28;20085;-78
2020/12/22 15:43:25;;;;;;;5.20;2.40;;;12.20;99.90;;;;;;21057797;28;20113;-78
2020/12/22 15:53:26;;;;;;;34.97;24.83;;;12.20;99.90;;;;;;21068233;28;20047;-79
2020/12/22 16:03:29;;;;;;;4.57;2.80;;;11.90;99.90;;;;;;21083018;28;20031;-78
2020/12/22 16:13:30;;;;;;;5.25;3.47;;;12.00;99.90;;;;;;21063910;28;20040;-80
2020/12/22 16:23:31;;;;;;;3.58;1.70;;;11.90;99.90;;;;;;21061172;28;20084;-78
2020/12/22 16:33:33;;;;;;;3.40;2.10;;;11.80;99.90;;;;;;21062716;28;20035;-77
2020/12/22 16:43:34;;;;;;;2.63;1.45;;;11.80;99.90;;;;;;21054551;28;20054;-80
2020/12/22 16:53:35;;;;;;;8.60;6.47;;;11.80;99.90;;;;;;21097220;28;20024;-79
2020/12/22 17:03:36;;;;;;;3.25;2.00;;;11.80;99.90;;;;;;21096316;28;20043;-79
2020/12/22 17:13:36;;;;;;;3.33;2.13;;;11.80;99.90;;;;;;21082689;28;20020;-79
2020/12/22 17:23:37;;;;;;;15.82;9.95;;;11.70;99.90;;;;;;21101676;28;20120;-80
2020/12/22 17:33:39;;;;;;;14.82;7.28;;;11.80;99.90;;;;;;21103284;28;20051;-78
2020/12/22 17:43:40;;;;;;;9.23;6.10;;;11.80;99.90;;;;;;21131457;28;20230;-78
2020/12/22 17:53:41;;;;;;;5.63;4.30;;;11.50;99.90;;;;;;21104659;28;20316;-79
2020/12/22 18:03:42;;;;;;;13.67;4.73;;;11.50;99.90;;;;;;21106100;28;20044;-79
2020/12/22 18:13:43;;;;;;;6.73;3.40;;;11.40;99.90;;;;;;21093296;28;20078;-79
2020/12/22 18:23:44;;;;;;;6.93;4.50;;;11.30;99.90;;;;;;21107025;28;20036;-78
2020/12/22 18:33:45;;;;;;;15.32;8.73;;;11.10;99.90;;;;;;21094596;28;20053;-81
2020/12/22 18:43:46;;;;;;;17.87;10.07;;;11.10;99.90;;;;;;21074936;28;20090;-78
2020/12/22 18:53:47;;;;;;;10.53;6.67;;;11.00;99.90;;;;;;21072285;28;20028;-77
2020/12/22 19:03:50;;;;;;;15.73;8.50;;;11.10;99.90;;;;;;21074704;28;20104;-78
2020/12/22 19:13:51;;;;;;;22.10;12.32;;;11.10;99.90;;;;;;21091490;28;20074;-78
2020/12/22 19:23:52;;;;;;;13.90;7.37;;;11.10;99.90;;;;;;21102165;28;20051;-80
2020/12/22 19:33:53;;;;;;;15.13;9.37;;;11.00;99.90;;;;;;21072585;28;20046;-78
2020/12/22 19:43:54;;;;;;;13.77;8.33;;;10.90;99.90;;;;;;21105682;28;20494;-80
2020/12/22 19:53:55;;;;;;;11.80;7.73;;;10.60;99.90;;;;;;21106104;28;20085;-81
2020/12/22 20:03:55;;;;;;;12.13;8.03;;;10.70;99.90;;;;;;21093202;28;20091;-79
2020/12/22 20:13:57;;;;;;;14.53;8.97;;;10.80;99.90;;;;;;21085471;28;20532;-77
2020/12/22 20:23:58;;;;;;;36.92;15.80;;;10.60;99.90;;;;;;21102377;28;20588;-80
2020/12/22 20:33:59;;;;;;;432.87;28.27;;;10.80;99.90;;;;;;21105800;28;20085;-79
2020/12/22 20:44:00;;;;;;;36.73;12.47;;;10.70;99.90;;;;;;21103250;28;20036;-80
2020/12/22 20:54:01;;;;;;;33.07;12.50;;;10.60;99.90;;;;;;21103181;28;20387;-80
2020/12/22 21:04:02;;;;;;;44.87;15.77;;;10.80;99.90;;;;;;21096578;28;20376;-79
2020/12/22 21:14:03;;;;;;;35.67;13.53;;;10.80;99.90;;;;;;21112976;28;20391;-79
2020/12/22 21:24:04;;;;;;;140.73;12.73;;;10.60;99.90;;;;;;21117349;28;20040;-80
2020/12/22 21:34:05;;;;;;;22.20;9.87;;;10.00;99.90;;;;;;21112203;28;20024;-77
2020/12/22 21:44:08;;;;;;;21.13;11.03;;;9.90;99.90;;;;;;21108645;28;20024;-76
2020/12/22 21:54:08;;;;;;;16.02;9.52;;;9.80;99.90;;;;;;21098682;28;20461;-77
2020/12/22 22:04:09;;;;;;;12.80;7.23;;;9.70;99.90;;;;;;21086774;28;20032;-76
2020/12/22 22:14:10;;;;;;;15.50;6.27;;;9.40;99.90;;;;;;21082754;28;20032;-77
2020/12/22 22:24:11;;;;;;;8.13;4.30;;;9.20;99.90;;;;;;21087333;28;20028;-78
2020/12/22 22:34:12;;;;;;;7.07;3.03;;;9.20;99.90;;;;;;21086628;28;20032;-78
2020/12/22 22:44:13;;;;;;;4.77;3.03;;;9.10;99.90;;;;;;21013435;28;20028;-78
2020/12/22 22:54:13;;;;;;;9.50;4.07;;;9.20;99.90;;;;;;21037410;28;20036;-78
2020/12/22 23:04:16;;;;;;;20.13;8.60;;;9.30;99.90;;;;;;21076609;28;20522;-78
2020/12/22 23:14:17;;;;;;;32.67;11.88;;;9.40;99.90;;;;;;21081823;28;20103;-77
2020/12/22 23:24:19;;;;;;;15.50;7.37;;;9.60;99.90;;;;;;21086283;28;20032;-77
2020/12/22 23:34:21;;;;;;;14.00;7.75;;;9.70;99.90;;;;;;21082572;28;20103;-78
2020/12/22 23:44:21;;;;;;;7.00;4.40;;;9.40;99.90;;;;;;21102607;28;20020;-78
2020/12/22 23:54:22;;;;;;;4.17;2.63;;;9.40;99.90;;;;;;21074648;28;20353;-78
